Time;durP1;ratioP1;P1;durP2;ratioP2;P2;SDS_P1;SDS_P2;PMS_P1;PMS_P2;Temp;Humidity;BMP_temperature;BMP_pressure;BME280_temperature;BME280_humidity;BME280_pressure;Samples;Min_cycle;Max_cycle;Signal;HPM_P1;HPM_P2
2023/03/18 00:01:35;;;;;;;7.70;5.90;;;;;;;9.67;90.41;97705.28;5069365;28;20210;-79
2023/03/18 00:04:03;;;;;;;8.10;5.80;;;;;;;9.61;90.69;97703.09;5067763;28;20220;-79
2023/03/18 00:06:29;;;;;;;9.53;5.93;;;;;;;9.61;90.65;97700.44;5071264;28;20294;-79
2023/03/18 00:08:57;;;;;;;8.50;6.03;;;;;;;9.59;90.34;97702.34;5073961;28;20209;-79
2023/03/18 00:11:23;;;;;;;8.97;5.27;;;;;;;9.58;90.20;97701.50;5073670;28;20209;-79
2023/03/18 00:13:50;;;;;;;8.97;5.80;;;;;;;9.57;90.19;97693.69;5073795;28;20607;-79
2023/03/18 00:16:17;;;;;;;7.53;6.30;;;;;;;9.54;90.08;97700.03;5073814;28;20666;-79
2023/03/18 00:18:44;;;;;;;8.30;5.57;;;;;;;9.52;90.03;97696.66;5073956;28;20703;-79
2023/03/18 00:21:12;;;;;;;8.93;5.20;;;;;;;9.50;90.34;97692.44;5073431;28;20211;-79
2023/03/18 00:23:38;;;;;;;6.97;5.60;;;;;;;9.52;88.84;97695.81;5073502;28;20735;-79
2023/03/18 00:26:05;;;;;;;8.20;5.47;;;;;;;9.51;87.75;97688.84;5073820;28;20228;-79
2023/03/18 00:28:32;;;;;;;7.57;4.57;;;;;;;9.52;86.55;97690.53;5073471;28;20217;-78
2023/03/18 00:31:04;;;;;;;6.27;4.20;;;;;;;9.52;85.50;97695.81;5073428;28;20207;-78
2023/03/18 00:33:31;;;;;;;7.00;4.73;;;;;;;9.52;84.74;97686.13;5073680;28;20296;-79
2023/03/18 00:35:57;;;;;;;6.60;4.43;;;;;;;9.50;84.82;97695.94;5073910;28;20249;-79
2023/03/18 00:38:25;;;;;;;7.50;4.73;;;;;;;9.45;85.52;97705.13;5073585;28;20226;-78
2023/03/18 00:41:00;;;;;;;7.20;4.70;;;;;;;9.41;85.89;97708.91;5073180;28;20692;-79
2023/03/18 00:43:32;;;;;;;9.13;5.10;;;;;;;9.38;86.96;97710.00;5073634;28;20268;-79
2023/03/18 00:45:59;;;;;;;7.40;4.80;;;;;;;9.40;86.87;97717.78;5073576;28;20591;-79
2023/03/18 00:48:27;;;;;;;7.80;5.07;;;;;;;9.42;86.97;97716.72;5073543;28;20294;-79
2023/03/18 00:50:54;;;;;;;7.03;4.77;;;;;;;9.39;86.94;97727.50;5073254;28;20211;-79
2023/03/18 00:53:22;;;;;;;6.67;4.50;;;;;;;9.36;87.12;97725.06;5073090;28;20243;-79
2023/03/18 00:55:50;;;;;;;7.30;4.60;;;;;;;9.35;86.12;97723.41;5073601;28;20556;-79
2023/03/18 00:58:16;;;;;;;9.37;4.87;;;;;;;9.39;84.96;97718.75;5073386;28;20294;-79
2023/03/18 01:00:44;;;;;;;5.70;4.53;;;;;;;9.38;83.98;97714.44;5072939;28;20209;-79
2023/03/18 01:03:11;;;;;;;6.47;4.60;;;;;;;9.42;83.21;97715.91;5073008;28;20275;-79
2023/03/18 01:05:38;;;;;;;5.53;4.10;;;;;;;9.44;82.97;97716.63;5072928;28;20695;-78
2023/03/18 01:08:05;;;;;;;5.80;4.30;;;;;;;9.46;82.66;97712.06;5072880;28;20676;-79
2023/03/18 01:10:32;;;;;;;6.90;4.53;;;;;;;9.46;81.81;97706.81;5072733;28;20210;-79
2023/03/18 01:13:00;;;;;;;8.17;4.37;;;;;;;9.50;80.42;97703.00;5072733;28;20232;-78
2023/03/18 01:15:27;;;;;;;6.50;4.47;;;;;;;9.53;79.09;97697.50;5072768;28;20696;-79
2023/03/18 01:17:55;;;;;;;6.03;3.87;;;;;;;9.51;78.94;97705.53;5072364;28;20692;-78
2023/03/18 01:20:23;;;;;;;6.03;3.80;;;;;;;9.50;77.90;97703.00;5072220;28;20226;-79
2023/03/18 01:22:50;;;;;;;5.33;3.63;;;;;;;9.51;77.57;97702.06;5072548;28;20246;-79
2023/03/18 01:25:16;;;;;;;4.40;3.20;;;;;;;9.51;76.86;97704.69;5072676;28;20206;-79
2023/03/18 01:27:43;;;;;;;4.40;3.30;;;;;;;9.53;75.78;97692.22;5072549;28;20203;-79
2023/03/18 01:30:13;;;;;;;4.43;3.00;;;;;;;9.54;74.83;97693.94;5072324;28;20587;-80
2023/03/18 01:32:40;;;;;;;3.53;2.67;;;;;;;9.52;74.37;97682.63;5072388;28;20227;-79
2023/03/18 01:35:07;;;;;;;4.80;2.80;;;;;;;9.47;74.85;97695.28;5072217;28;20211;-77
2023/03/18 01:37:34;;;;;;;3.30;2.70;;;;;;;9.45;71.89;97679.59;5072300;28;20208;-79
2023/03/18 01:40:00;;;;;;;3.40;2.57;;;;;;;9.49;71.94;97670.50;5071847;28;20322;-79
2023/03/18 01:42:27;;;;;;;5.37;3.07;;;;;;;9.55;72.06;97663.97;5072204;28;20253;-79
2023/03/18 01:45:10;;;;;;;4.13;3.10;;;;;;;9.51;74.27;97688.84;5072167;28;20208;-79
2023/03/18 01:47:38;;;;;;;3.27;2.60;;;;;;;9.45;75.82;97689.28;5072120;28;20252;-79
2023/03/18 01:50:05;;;;;;;4.67;2.70;;;;;;;9.39;76.40;97697.66;5071982;28;20291;-79
2023/03/18 01:52:32;;;;;;;4.47;3.33;;;;;;;9.41;76.19;97693.09;5071952;28;20234;-79
2023/03/18 01:55:01;;;;;;;6.83;3.47;;;;;;;9.46;75.59;97691.84;5072167;28;20217;-79
2023/03/18 01:57:29;;;;;;;5.73;3.40;;;;;;;9.51;74.75;97689.72;5071905;28;20207;-79
2023/03/18 01:59:57;;;;;;;5.00;3.63;;;;;;;9.58;74.40;97687.47;5069954;28;20253;-79
2023/03/18 02:02:25;;;;;;;4.80;3.57;;;;;;;9.59;73.88;97678.59;5071122;28;20579;-79
2023/03/18 02:05:01;;;;;;;6.20;3.30;;;;;;;9.62;73.57;97675.75;5071759;28;20300;-79
2023/03/18 02:07:30;;;;;;;4.97;3.27;;;;;;;9.63;73.27;97674.78;5071735;28;20209;-79
2023/03/18 02:09:59;;;;;;;4.30;3.23;;;;;;;9.64;73.87;97685.22;5071615;28;20216;-79
2023/03/18 02:12:29;;;;;;;3.83;3.10;;;;;;;9.58;74.46;97687.47;5071476;28;20238;-78
2023/03/18 02:14:56;;;;;;;5.00;3.37;;;;;;;9.60;74.40;97693.50;5072013;28;20273;-79
2023/03/18 02:17:25;;;;;;;5.93;3.47;;;;;;;9.58;75.46;97695.38;5071667;28;20207;-79
2023/03/18 02:20:06;;;;;;;4.13;3.10;;;;;;;9.50;76.28;97689.81;5071329;28;20231;-79
2023/03/18 02:22:38;;;;;;;4.50;3.30;;;;;;;9.43;77.08;97692.03;5071303;28;20263;-79
2023/03/18 02:25:18;;;;;;;5.13;3.13;;;;;;;9.39;77.54;97695.88;5071414;28;20219;-79
2023/03/18 02:27:51;;;;;;;4.23;2.93;;;;;;;9.36;78.33;97696.06;5071269;28;20215;-79
2023/03/18 02:30:20;;;;;;;3.87;2.70;;;;;;;9.35;77.71;97698.81;5070296;28;20199;-79
2023/03/18 02:32:50;;;;;;;3.70;2.50;;;;;;;9.32;77.40;97701.69;5071225;28;20258;-79
2023/03/18 02:35:16;;;;;;;3.93;3.00;;;;;;;9.29;75.76;97699.25;5071233;28;20205;-79
2023/03/18 02:37:43;;;;;;;5.13;2.73;;;;;;;9.24;75.68;97690.84;5071142;28;20213;-79
2023/03/18 02:40:15;;;;;;;3.33;2.43;;;;;;;9.17;76.04;97692.22;5071179;28;20238;-79
2023/03/18 02:42:42;;;;;;;5.67;2.10;;;;;;;9.18;73.33;97680.72;5071064;28;20258;-79
2023/03/18 02:45:19;;;;;;;3.90;1.77;;;;;;;9.30;69.84;97658.75;5071167;28;20264;-79
2023/03/18 02:47:48;;;;;;;1.63;1.30;;;;;;;9.38;68.21;97659.03;5070989;28;20221;-79
2023/03/18 02:50:15;;;;;;;4.70;1.50;;;;;;;9.46;67.56;97659.31;5070681;28;20268;-79
2023/03/18 02:52:42;;;;;;;3.13;1.40;;;;;;;9.45;68.04;97662.91;5071264;28;20227;-79
2023/03/18 02:55:09;;;;;;;2.87;1.47;;;;;;;9.41;68.55;97669.34;5070962;28;20211;-79
2023/03/18 02:57:36;;;;;;;4.43;1.60;;;;;;;9.37;70.20;97681.09;5070878;28;20226;-79
2023/03/18 03:00:02;;;;;;;6.23;3.43;;;;;;;9.31;73.49;97702.63;5070463;28;20811;-79
2023/03/18 03:02:30;;;;;;;4.33;3.23;;;;;;;9.13;75.46;97709.19;5070699;28;20236;-79
2023/03/18 03:04:56;;;;;;;5.77;3.07;;;;;;;9.06;74.74;97703.50;5070850;28;20740;-79
2023/03/18 03:07:26;;;;;;;3.97;2.97;;;;;;;8.86;76.09;97716.38;5071012;28;20217;-79
2023/03/18 03:09:53;;;;;;;4.67;3.30;;;;;;;8.72;77.72;97729.66;5070641;28;20218;-79
2023/03/18 03:12:20;;;;;;;5.47;3.87;;;;;;;8.71;78.45;97731.47;5070848;28;20229;-79
2023/03/18 03:14:46;;;;;;;7.83;4.83;;;;;;;8.83;81.15;97748.22;5070949;28;20205;-78
2023/03/18 03:17:13;;;;;;;6.73;4.03;;;;;;;8.70;82.04;97745.56;5070626;28;20681;-79
2023/03/18 03:19:40;;;;;;;8.47;4.77;;;;;;;8.61;82.86;97753.25;5070499;28;20231;-78
2023/03/18 03:22:07;;;;;;;6.17;4.30;;;;;;;8.56;83.66;97763.28;5070436;28;20237;-79
2023/03/18 03:24:34;;;;;;;5.40;4.20;;;;;;;8.45;84.42;97771.84;5070748;28;20207;-79
2023/03/18 03:27:00;;;;;;;7.60;4.97;;;;;;;8.42;85.38;97758.91;5070630;28;20736;-78
2023/03/18 03:29:26;;;;;;;8.00;4.40;;;;;;;8.35;86.25;97764.69;5070332;28;20203;-80
2023/03/18 03:31:53;;;;;;;7.50;4.30;;;;;;;8.29;86.45;97763.31;5070411;28;20213;-79
2023/03/18 03:34:19;;;;;;;6.60;4.03;;;;;;;8.28;85.77;97768.66;5070534;28;20209;-79
2023/03/18 03:36:47;;;;;;;6.67;4.50;;;;;;;8.24;87.48;97775.06;5070570;28;20211;-79
2023/03/18 03:39:14;;;;;;;4.93;3.77;;;;;;;8.21;87.72;97767.38;5070206;28;20237;-78
2023/03/18 03:41:40;;;;;;;4.67;3.73;;;;;;;8.18;88.40;97775.44;5073193;28;20215;-79
2023/03/18 03:44:07;;;;;;;5.27;4.00;;;;;;;8.12;89.68;97774.06;5074475;28;20214;-79
2023/03/18 03:46:34;;;;;;;6.80;4.10;;;;;;;8.07;90.27;97784.03;5074548;28;20665;-79
2023/03/18 03:49:00;;;;;;;6.07;4.13;;;;;;;8.03;90.14;97786.97;5074623;28;20208;-79
2023/03/18 03:51:28;;;;;;;5.57;3.77;;;;;;;7.95;90.95;97779.56;5074463;28;20225;-79
2023/03/18 03:53:56;;;;;;;5.90;4.40;;;;;;;7.94;91.16;97782.28;5074496;28;20230;-79
2023/03/18 03:56:23;;;;;;;6.10;3.80;;;;;;;7.93;91.43;97780.59;5074319;28;20221;-79
2023/03/18 03:58:49;;;;;;;5.13;4.07;;;;;;;7.93;91.63;97780.59;5074218;28;20217;-79
2023/03/18 04:01:16;;;;;;;5.77;4.00;;;;;;;7.90;90.88;97780.81;5073968;28;20596;-79
2023/03/18 04:03:42;;;;;;;6.30;3.30;;;;;;;7.87;90.69;97771.31;5074364;28;20231;-79
2023/03/18 04:06:09;;;;;;;4.97;3.50;;;;;;;7.87;90.60;97775.72;5074327;28;20240;-79
2023/03/18 04:08:36;;;;;;;4.77;3.50;;;;;;;7.88;89.58;97772.16;5074349;28;20208;-78
2023/03/18 04:11:04;;;;;;;6.73;3.70;;;;;;;7.89;88.51;97779.13;5073789;28;20208;-78
2023/03/18 04:13:31;;;;;;;6.23;3.90;;;;;;;7.90;87.45;97771.09;5074007;28;20235;-78
2023/03/18 04:15:57;;;;;;;6.47;3.93;;;;;;;7.90;86.88;97772.91;5074040;28;20225;-79
2023/03/18 04:18:24;;;;;;;6.87;4.30;;;;;;;7.92;87.07;97778.91;5074095;28;20331;-79
2023/03/18 04:20:51;;;;;;;6.40;4.40;;;;;;;7.85;86.68;97770.56;5073681;28;20237;-79
2023/03/18 04:23:18;;;;;;;5.80;4.23;;;;;;;7.76;87.65;97778.19;5073776;28;20238;-79
2023/03/18 04:25:44;;;;;;;4.57;3.73;;;;;;;7.67;88.64;97781.41;5073754;28;20213;-79
2023/03/18 04:28:13;;;;;;;5.23;3.93;;;;;;;7.59;90.16;97786.31;5073774;28;20252;-79
2023/03/18 04:30:39;;;;;;;6.77;3.83;;;;;;;7.56;90.29;97789.13;5073480;28;20699;-79
2023/03/18 04:33:06;;;;;;;7.07;4.50;;;;;;;7.53;91.08;97798.06;5073453;28;20230;-79
2023/03/18 04:35:32;;;;;;;6.00;5.03;;;;;;;7.45;92.07;97788.94;5073615;28;20701;-79
2023/03/18 04:37:59;;;;;;;6.27;4.73;;;;;;;7.36;92.77;97794.78;5073538;28;20210;-79
2023/03/18 04:40:26;;;;;;;7.10;5.10;;;;;;;7.20;93.85;97804.53;5072926;28;20230;-79
2023/03/18 04:42:52;;;;;;;7.20;5.00;;;;;;;7.10;96.58;97808.69;5073537;28;20232;-79
2023/03/18 04:45:20;;;;;;;7.87;5.30;;;;;;;7.00;98.04;97807.53;5073685;28;20425;-79
2023/03/18 04:47:46;;;;;;;8.30;5.30;;;;;;;6.95;98.69;97799.09;5073261;28;20217;-79
2023/03/18 04:50:14;;;;;;;6.00;4.80;;;;;;;6.92;99.49;97815.03;5073554;28;20211;-79
2023/03/18 04:52:42;;;;;;;7.30;5.73;;;;;;;6.91;100.00;97797.56;5072425;28;20774;-79
2023/03/18 04:55:09;;;;;;;6.60;4.87;;;;;;;6.90;100.00;97798.50;5073141;28;20647;-79
2023/03/18 04:57:37;;;;;;;5.30;4.20;;;;;;;6.94;99.60;97801.78;5073049;28;20700;-80
2023/03/18 05:00:05;;;;;;;6.70;4.57;;;;;;;7.00;98.33;97802.28;5072997;28;20237;-78
2023/03/18 05:02:34;;;;;;;9.20;5.00;;;;;;;7.11;97.49;97799.84;5073100;28;20249;-78
2023/03/18 05:05:00;;;;;;;5.80;4.90;;;;;;;7.12;96.65;97804.16;5073114;28;20567;-79
2023/03/18 05:07:27;;;;;;;5.73;4.33;;;;;;;7.07;97.24;97798.34;5072980;28;20232;-79
2023/03/18 05:09:54;;;;;;;6.33;4.83;;;;;;;7.04;97.46;97793.28;5072416;28;20206;-79
2023/03/18 05:12:20;;;;;;;6.70;4.80;;;;;;;6.91;97.99;97792.31;5072751;28;20723;-78
2023/03/18 05:14:46;;;;;;;6.10;4.77;;;;;;;6.86;98.91;97788.28;5072938;28;20211;-79
2023/03/18 05:17:15;;;;;;;7.17;4.70;;;;;;;6.85;98.53;97803.19;5072848;28;20207;-79
2023/03/18 05:19:45;;;;;;;5.23;4.10;;;;;;;6.87;99.28;97796.09;5072510;28;20256;-79
2023/03/18 05:22:12;;;;;;;5.83;4.70;;;;;;;6.94;97.71;97797.41;5087608;22;20350;-76
2023/03/18 05:24:40;;;;;;;7.13;4.20;;;;;;;6.98;96.53;97801.53;5052257;28;20212;-76
2023/03/18 05:27:07;;;;;;;5.50;4.13;;;;;;;6.94;96.33;97802.66;5053247;28;20461;-76
2023/03/18 05:29:34;;;;;;;5.43;4.47;;;;;;;6.94;96.49;97802.66;5052793;28;20211;-76
2023/03/18 05:32:00;;;;;;;5.67;4.43;;;;;;;6.89;96.96;97809.13;5052978;28;20238;-76
2023/03/18 05:34:27;;;;;;;6.33;4.53;;;;;;;6.85;96.86;97803.19;5052869;28;20215;-76
2023/03/18 05:36:56;;;;;;;5.30;4.60;;;;;;;6.85;97.19;97808.44;5052959;28;20241;-76
2023/03/18 05:39:23;;;;;;;6.57;4.80;;;;;;;6.81;97.26;97806.94;5052602;28;20659;-77
2023/03/18 05:41:49;;;;;;;4.97;3.90;;;;;;;6.72;97.38;97802.22;5052610;28;20234;-76
2023/03/18 05:44:16;;;;;;;4.33;3.30;;;;;;;6.74;97.51;97810.88;5052665;28;20293;-76
2023/03/18 05:46:43;;;;;;;3.60;3.30;;;;;;;6.78;96.93;97809.75;5052646;28;20271;-77
2023/03/18 05:49:09;;;;;;;4.30;3.30;;;;;;;6.83;95.22;97812.94;5052111;28;20706;-76
2023/03/18 05:51:36;;;;;;;4.33;3.30;;;;;;;6.88;94.67;97807.41;5052585;28;20201;-76
2023/03/18 05:54:05;;;;;;;5.27;3.50;;;;;;;6.92;93.57;97801.06;5052304;28;20255;-76
2023/03/18 05:56:31;;;;;;;5.13;3.23;;;;;;;6.86;92.88;97804.91;5052514;28;20213;-77
2023/03/18 05:58:58;;;;;;;5.03;3.43;;;;;;;6.84;92.88;97801.50;5052543;28;20242;-76
2023/03/18 06:01:25;;;;;;;6.97;4.13;;;;;;;6.88;93.76;97808.28;5052001;28;20239;-77
2023/03/18 06:03:52;;;;;;;7.60;4.40;;;;;;;7.05;93.07;97800.22;5052119;28;20235;-76
2023/03/18 06:06:19;;;;;;;6.57;3.80;;;;;;;7.00;92.63;97806.69;5052283;28;20212;-76
2023/03/18 06:08:45;;;;;;;3.93;3.30;;;;;;;6.89;94.46;97799.44;5052090;28;20212;-76
2023/03/18 06:11:14;;;;;;;5.40;3.77;;;;;;;6.85;94.64;97807.59;5052082;28;20237;-76
2023/03/18 06:13:40;;;;;;;4.97;3.67;;;;;;;6.83;95.14;97814.75;5052022;28;20730;-76
2023/03/18 06:16:07;;;;;;;4.83;3.93;;;;;;;6.85;94.76;97813.69;5051881;28;20222;-76
2023/03/18 06:18:34;;;;;;;4.80;4.10;;;;;;;6.79;95.15;97819.31;5051955;28;20212;-76
2023/03/18 06:21:01;;;;;;;6.40;3.70;;;;;;;6.75;95.91;97815.19;5051724;28;20232;-76
2023/03/18 06:23:27;;;;;;;4.57;3.70;;;;;;;6.75;95.97;97817.81;5051970;28;20234;-76
2023/03/18 06:25:54;;;;;;;7.03;4.40;;;;;;;6.70;97.28;97822.50;5051953;28;20217;-76
2023/03/18 06:28:22;;;;;;;6.37;4.00;;;;;;;6.73;98.56;97824.91;5051828;28;20240;-76
2023/03/18 06:30:48;;;;;;;7.90;4.00;;;;;;;6.68;99.39;97831.38;5051604;28;20603;-76
2023/03/18 06:33:15;;;;;;;4.97;4.07;;;;;;;6.69;99.46;97831.31;5052189;28;20604;-76
2023/03/18 06:35:41;;;;;;;5.97;4.40;;;;;;;6.76;99.90;97831.78;5052042;28;20217;-76
2023/03/18 06:38:09;;;;;;;6.23;4.30;;;;;;;6.80;99.01;97828.91;5051854;28;20212;-76
2023/03/18 06:40:36;;;;;;;4.97;4.30;;;;;;;6.85;98.99;97832.06;5051301;28;20745;-76
2023/03/18 06:43:03;;;;;;;6.13;4.20;;;;;;;6.95;99.15;97830.59;5051536;28;20236;-76
2023/03/18 06:45:33;;;;;;;7.17;3.90;;;;;;;6.95;99.19;97829.78;5051477;28;20212;-77
2023/03/18 06:48:00;;;;;;;5.60;4.20;;;;;;;6.94;98.17;97828.06;5051890;28;20620;-76
2023/03/18 06:50:27;;;;;;;5.87;4.27;;;;;;;6.99;98.73;97832.13;5051024;28;20677;-76
2023/03/18 06:52:54;;;;;;;5.87;4.27;;;;;;;7.04;100.00;97824.81;5051242;28;20255;-76
2023/03/18 06:55:20;;;;;;;7.73;4.70;;;;;;;7.09;100.00;97828.00;5051375;28;20211;-76
2023/03/18 06:57:47;;;;;;;6.33;4.67;;;;;;;7.15;99.92;97832.88;5051431;28;20227;-76
2023/03/18 07:00:15;;;;;;;4.83;4.33;;;;;;;7.13;100.00;97832.13;5051065;28;20242;-76
2023/03/18 07:02:43;;;;;;;5.47;4.93;;;;;;;7.21;100.00;97832.50;5051525;28;20228;-77
2023/03/18 07:05:11;;;;;;;6.93;4.93;;;;;;;7.26;100.00;97840.13;5051289;28;20215;-77
2023/03/18 07:07:38;;;;;;;6.50;4.77;;;;;;;7.32;100.00;97845.84;5051272;28;20260;-77
2023/03/18 07:10:07;;;;;;;7.60;5.20;;;;;;;7.45;100.00;97846.78;5050954;28;20207;-76
2023/03/18 07:12:33;;;;;;;5.77;4.73;;;;;;;7.52;100.00;97843.69;5050939;28;20237;-76
2023/03/18 07:15:00;;;;;;;7.33;5.10;;;;;;;7.64;100.00;97848.19;5050874;28;20209;-76
2023/03/18 07:17:26;;;;;;;5.80;5.20;;;;;;;7.80;100.00;97843.69;5051238;28;20213;-76
2023/03/18 07:19:54;;;;;;;7.93;6.00;;;;;;;7.96;100.00;97844.38;5050793;28;20211;-77
2023/03/18 07:22:21;;;;;;;7.47;5.97;;;;;;;8.11;100.00;97853.09;5050815;28;20673;-76
2023/03/18 07:24:47;;;;;;;7.70;6.03;;;;;;;8.32;100.00;97841.25;5050913;28;20210;-76
2023/03/18 07:27:14;;;;;;;9.23;6.37;;;;;;;8.62;100.00;97849.78;5050769;28;20386;-76
2023/03/18 07:29:40;;;;;;;9.83;6.00;;;;;;;8.89;100.00;97837.41;5050824;28;20211;-76
2023/03/18 07:32:07;;;;;;;7.13;4.90;;;;;;;9.08;99.13;97843.13;5050676;28;20668;-77
2023/03/18 07:34:34;;;;;;;6.97;4.70;;;;;;;9.24;96.17;97833.22;5050740;28;20630;-76
2023/03/18 07:37:02;;;;;;;9.57;4.80;;;;;;;9.43;92.28;97838.91;5050692;28;20211;-78
2023/03/18 07:39:29;;;;;;;7.50;4.80;;;;;;;9.48;89.22;97836.81;5049950;28;20213;-76
2023/03/18 07:41:55;;;;;;;8.07;5.03;;;;;;;9.63;88.83;97841.00;5048577;28;20713;-76
2023/03/18 07:44:22;;;;;;;6.20;4.30;;;;;;;9.82;89.76;97841.41;5050038;28;20235;-76
2023/03/18 07:46:49;;;;;;;6.07;4.70;;;;;;;9.89;93.67;97853.19;5050751;28;20217;-76
2023/03/18 07:49:15;;;;;;;6.07;4.60;;;;;;;10.01;91.70;97844.41;5048101;28;20316;-76
2023/03/18 07:51:42;;;;;;;6.47;4.30;;;;;;;10.07;91.44;97841.38;5050698;28;20202;-76
2023/03/18 07:54:10;;;;;;;6.07;4.13;;;;;;;10.15;91.59;97842.50;5050341;28;20229;-76
2023/03/18 07:56:36;;;;;;;5.70;4.10;;;;;;;10.28;89.00;97838.03;5048561;28;20212;-76
2023/03/18 07:59:03;;;;;;;7.07;4.47;;;;;;;10.36;87.65;97833.03;5050612;28;20207;-77
2023/03/18 08:01:29;;;;;;;6.87;4.60;;;;;;;10.57;85.18;97826.16;5050324;28;20234;-76
2023/03/18 08:03:56;;;;;;;4.57;3.73;;;;;;;10.75;83.40;97824.81;5050668;28;20619;-76
2023/03/18 08:06:24;;;;;;;6.00;4.00;;;;;;;11.00;81.87;97829.13;5050665;28;20243;-76
2023/03/18 08:08:50;;;;;;;6.07;3.80;;;;;;;11.16;80.75;97817.25;5050591;28;20262;-76
2023/03/18 08:11:18;;;;;;;4.80;3.57;;;;;;;11.25;77.75;97821.00;5050265;28;20219;-75
2023/03/18 08:13:44;;;;;;;5.30;3.60;;;;;;;11.45;78.39;97821.16;5050676;28;20227;-75
2023/03/18 08:16:11;;;;;;;5.00;3.60;;;;;;;11.59;74.63;97812.13;5049361;28;20213;-75
2023/03/18 08:18:37;;;;;;;5.63;3.83;;;;;;;11.71;75.46;97824.41;5049008;28;20212;-75
2023/03/18 08:21:04;;;;;;;6.80;3.60;;;;;;;11.91;73.23;97819.22;5050039;28;20244;-76
2023/03/18 08:23:32;;;;;;;4.87;3.50;;;;;;;12.05;75.45;97841.97;5049197;28;20588;-76
2023/03/18 08:25:58;;;;;;;5.73;3.53;;;;;;;12.23;75.12;97827.28;5050019;28;20212;-76
2023/03/18 08:28:26;;;;;;;4.63;3.33;;;;;;;12.21;73.17;97822.09;5052557;28;20258;-76
2023/03/18 08:30:54;;;;;;;3.73;3.10;;;;;;;12.29;71.25;97814.34;5053880;28;20200;-76
2023/03/18 08:33:21;;;;;;;3.63;3.10;;;;;;;12.47;66.74;97796.13;5053846;28;20851;-76
2023/03/18 08:35:48;;;;;;;4.87;3.40;;;;;;;12.57;69.28;97802.34;5053915;28;20221;-76
2023/03/18 08:38:14;;;;;;;4.90;3.17;;;;;;;12.67;66.36;97787.38;5054186;28;20252;-76
2023/03/18 08:40:41;;;;;;;4.40;3.03;;;;;;;12.85;65.35;97791.13;5051526;28;20207;-76
2023/03/18 08:43:09;;;;;;;3.10;2.73;;;;;;;12.99;64.70;97793.50;5051816;28;20232;-76
2023/03/18 08:45:37;;;;;;;5.50;2.90;;;;;;;12.97;64.29;97790.97;5053200;28;20270;-77
2023/03/18 08:48:03;;;;;;;3.57;2.70;;;;;;;13.09;61.66;97778.50;5053756;28;20213;-75
2023/03/18 08:50:30;;;;;;;3.77;2.70;;;;;;;13.10;60.96;97761.59;5053072;28;20215;-76
2023/03/18 08:52:58;;;;;;;4.13;3.07;;;;;;;13.26;62.84;97775.25;5053540;28;20231;-76
2023/03/18 08:55:29;;;;;;;4.40;3.77;;;;;;;13.35;68.13;97814.28;5053894;28;20208;-76
2023/03/18 08:57:56;;;;;;;4.43;3.13;;;;;;;13.56;65.84;97793.88;5052411;28;20964;-74
2023/03/18 09:00:24;;;;;;;6.03;3.27;;;;;;;13.60;65.19;97782.84;5052433;28;20282;-74
2023/03/18 09:02:52;;;;;;;5.27;3.10;;;;;;;13.67;66.11;97785.78;5051821;28;20306;-74
2023/03/18 09:05:18;;;;;;;5.43;3.20;;;;;;;13.76;65.53;97785.00;5051930;28;20751;-74
2023/03/18 09:07:45;;;;;;;4.80;2.57;;;;;;;13.86;64.46;97785.84;5053550;28;20214;-74
2023/03/18 09:10:13;;;;;;;3.40;2.40;;;;;;;13.94;63.90;97778.06;5053073;28;20219;-74
2023/03/18 09:12:41;;;;;;;4.50;2.63;;;;;;;14.14;62.44;97769.16;5053272;28;20273;-74
2023/03/18 09:15:10;;;;;;;4.27;2.37;;;;;;;14.18;59.75;97749.31;5053264;28;20224;-74
2023/03/18 09:17:37;;;;;;;4.60;2.90;;;;;;;14.25;59.76;97758.47;5053086;28;20650;-73
2023/03/18 09:20:06;;;;;;;3.27;2.73;;;;;;;14.32;59.65;97751.59;5052823;28;20275;-74
2023/03/18 09:22:32;;;;;;;4.27;2.90;;;;;;;14.38;60.60;97761.69;5052817;28;20235;-76
2023/03/18 09:24:59;;;;;;;3.63;2.60;;;;;;;14.61;61.70;97773.75;5053038;28;20215;-76
2023/03/18 09:27:25;;;;;;;3.10;2.20;;;;;;;14.65;58.71;97751.19;5053116;28;20206;-76
2023/03/18 09:29:52;;;;;;;4.93;2.10;;;;;;;14.78;55.53;97722.50;5052676;28;20207;-75
2023/03/18 09:32:19;;;;;;;3.13;2.10;;;;;;;14.87;55.65;97734.94;5052701;28;20233;-75
2023/03/18 09:34:46;;;;;;;2.73;1.70;;;;;;;14.85;54.45;97715.63;5052843;28;20213;-75
2023/03/18 09:37:14;;;;;;;2.70;2.00;;;;;;;14.95;55.12;97721.75;5052891;28;20206;-75
2023/03/18 09:39:41;;;;;;;2.67;2.03;;;;;;;15.05;53.52;97698.66;5052172;28;20214;-75
2023/03/18 09:42:22;;;;;;;3.57;1.73;;;;;;;15.09;52.18;97692.06;5052609;28;20243;-75
2023/03/18 09:44:55;;;;;;;1.97;1.50;;;;;;;15.21;52.42;97696.22;5052522;28;20220;-75
2023/03/18 09:47:51;;;;;;;2.43;1.93;;;;;;;15.24;51.38;97695.91;5052887;28;20215;-76
2023/03/18 09:50:32;;;;;;;3.17;1.70;;;;;;;15.23;50.50;97687.13;5052363;28;20212;-75
2023/03/18 09:53:16;;;;;;;2.60;1.37;;;;;;;15.42;51.46;97694.22;5052458;28;20227;-76
2023/03/18 09:55:46;;;;;;;3.30;1.20;;;;;;;15.55;50.27;97686.72;5052637;28;20234;-75
2023/03/18 09:58:20;;;;;;;3.73;1.50;;;;;;;15.68;50.01;97684.53;5052615;28;20265;-77
2023/03/18 10:00:47;;;;;;;3.27;1.50;;;;;;;15.88;52.74;97718.13;5052182;28;20215;-75
2023/03/18 10:03:20;;;;;;;1.63;1.30;;;;;;;15.88;51.36;97696.78;5052156;28;20605;-76
2023/03/18 10:05:50;;;;;;;4.90;1.43;;;;;;;16.05;51.67;97696.81;5052236;28;20215;-76
2023/03/18 10:08:24;;;;;;;2.70;1.37;;;;;;;16.14;50.15;97680.75;5052304;28;20329;-76
2023/03/18 10:10:51;;;;;;;1.67;1.40;;;;;;;16.20;51.46;97690.81;5052010;28;20239;-79
2023/03/18 10:13:22;;;;;;;4.17;1.40;;;;;;;16.21;48.80;97655.16;5052069;28;20228;-76
2023/03/18 10:15:52;;;;;;;3.27;1.57;;;;;;;16.27;52.20;97697.22;5052052;28;20214;-77
2023/03/18 10:18:25;;;;;;;8.17;4.63;;;;;;;16.35;50.87;97689.28;5052475;28;20284;-76
2023/03/18 10:21:00;;;;;;;2.37;1.60;;;;;;;16.47;50.29;97682.75;5051986;28;20595;-76
2023/03/18 10:23:37;;;;;;;1.97;1.40;;;;;;;16.47;49.06;97669.41;5051969;28;20232;-76
2023/03/18 10:26:06;;;;;;;3.27;1.33;;;;;;;16.58;50.43;97693.19;5051937;28;20215;-76
2023/03/18 10:28:56;;;;;;;3.00;1.33;;;;;;;16.65;51.23;97696.94;5051936;28;20685;-77
2023/03/18 10:31:44;;;;;;;5.43;1.67;;;;;;;16.71;48.54;97658.94;5052013;28;20254;-76
2023/03/18 10:34:15;;;;;;;2.87;1.30;;;;;;;16.65;48.28;97656.09;5051941;28;20231;-76
2023/03/18 10:36:49;;;;;;;1.77;1.20;;;;;;;16.52;46.07;97620.97;5051925;28;20212;-76
2023/03/18 10:39:20;;;;;;;1.80;1.20;;;;;;;16.45;47.65;97651.94;5051859;28;20216;-77
2023/03/18 10:41:49;;;;;;;2.43;1.50;;;;;;;16.55;47.71;97660.66;5052008;28;20231;-77
2023/03/18 10:44:19;;;;;;;4.07;1.20;;;;;;;16.55;47.50;97653.50;5051578;28;20246;-75
2023/03/18 10:46:47;;;;;;;1.87;1.23;;;;;;;16.64;49.74;97679.25;5051610;28;20200;-76
2023/03/18 10:49:19;;;;;;;2.23;1.20;;;;;;;16.88;49.04;97673.28;5051297;28;20223;-76
2023/03/18 10:51:51;;;;;;;3.23;1.30;;;;;;;16.93;47.35;97647.78;5050978;28;20642;-76
2023/03/18 10:54:24;;;;;;;1.63;1.10;;;;;;;16.82;47.16;97636.53;5051814;28;20236;-76
2023/03/18 10:56:52;;;;;;;3.03;1.30;;;;;;;16.93;49.18;97665.63;5051729;28;20211;-76
2023/03/18 10:59:22;;;;;;;2.53;1.30;;;;;;;17.12;49.84;97668.09;5051254;28;20240;-76
2023/03/18 11:01:54;;;;;;;3.13;1.40;;;;;;;17.24;49.80;97678.34;5051198;28;20234;-77
2023/03/18 11:04:23;;;;;;;2.77;1.30;;;;;;;17.22;48.47;97653.63;5051260;28;20228;-75
2023/03/18 11:06:54;;;;;;;2.17;1.37;;;;;;;17.13;47.15;97625.19;5051392;28;20219;-76
2023/03/18 11:09:28;;;;;;;1.53;1.20;;;;;;;17.04;46.95;97619.97;5051111;28;20212;-78
2023/03/18 11:11:58;;;;;;;4.10;1.77;;;;;;;16.97;47.10;97627.78;5051519;28;20314;-78
2023/03/18 11:14:29;;;;;;;4.03;1.40;;;;;;;17.05;49.10;97654.53;5051398;28;20211;-77
2023/03/18 11:16:58;;;;;;;3.20;1.60;;;;;;;17.20;49.20;97654.78;5051715;28;20223;-79
2023/03/18 11:19:28;;;;;;;4.30;2.00;;;;;;;17.37;50.39;97665.44;5051001;28;20212;-77
2023/03/18 11:22:05;;;;;;;1.90;1.33;;;;;;;17.41;46.67;97623.19;5051133;28;20228;-77
2023/03/18 11:24:38;;;;;;;2.33;1.40;;;;;;;17.42;46.90;97623.03;5051368;28;20601;-77
2023/03/18 11:27:24;;;;;;;4.27;1.60;;;;;;;17.40;44.68;97597.47;5051458;28;20212;-78
2023/03/18 11:29:56;;;;;;;2.33;1.50;;;;;;;17.45;46.99;97613.88;5050916;28;20251;-78
2023/03/18 11:32:26;;;;;;;2.93;1.67;;;;;;;17.48;47.52;97619.72;5050940;28;20234;-78
2023/03/18 11:34:56;;;;;;;2.80;1.47;;;;;;;17.49;45.92;97585.84;5051805;28;20290;-78
2023/03/18 11:37:27;;;;;;;3.27;1.80;;;;;;;17.66;47.56;97615.13;5051024;28;21009;-77
2023/03/18 11:40:07;;;;;;;2.93;1.50;;;;;;;17.66;46.79;97603.59;5050662;28;20692;-77
2023/03/18 11:42:34;;;;;;;3.77;1.63;;;;;;;17.80;49.97;97649.25;5050950;28;20246;-78
2023/03/18 11:45:04;;;;;;;4.60;1.30;;;;;;;17.85;48.16;97622.84;5050874;28;20211;-77